KGRF/GRF METAR and TAF weather

Enter ICAO airport designator
Station Type Date Time Source
KGRF METAR 2020/12/06 00:58 UTC NOAA

KGRF 060058Z AUTO 05004KT 10SM CLR 06/06 A3003 RMK AO2 SLP175 T00580058 $


Station Type Date Time Source
KGRF Decoded METAR 2020/12/06 00:58 UTC NOAA

Fort Lewis / Gray U. S. Army Airfield, WA, United States (KGRF) 47-07N 122-33W 87M
Dec 05, 2020 - 07:58 PM EST / 2020.12.06 0058 UTC
Wind: from the NE (050 degrees) at 5 MPH (4 KT):0
Visibility: 10 mile(s):0
Sky conditions: clear
Temperature: 42.4 F (5.8 C)
Dew Point: 42.4 F (5.8 C)
Relative Humidity: 100%
Pressure (altimeter): 30.03 in. Hg (1016 hPa)
ob: KGRF 060058Z AUTO 05004KT 10SM CLR 06/06 A3003 RMK AO2 SLP175 T00580058
cycle: 1

Station Type Date Time Source
KGRF TAF 2020/12/05 21:58 UTC NOAA

TAF KGRF 052056Z 0521/0703 23006KT 9999 SCT070 QNH3003INS
BECMG 0605/0606 19006KT 9000 -SHRA BR BKN025 BKN060 QNH3009INS
BECMG 0612/0613 15006KT 9000 -SHRA BR OVC015 QNH3018INS
BECMG 0619/0620 17006KT 9999 NSW BKN020 QNH3028INS TX12/0523Z TN04/0511Z

Example: see airport list